Time;durP1;ratioP1;P1;durP2;ratioP2;P2;SDS_P1;SDS_P2;PMS_P1;PMS_P2;Temp;Humidity;BMP_temperature;BMP_pressure;BME280_temperature;BME280_humidity;BME280_pressure;Samples;Min_cycle;Max_cycle;Signal;HPM_P1;HPM_P2
2022/04/12 00:00:57;;;;;;;2.65;1.60;;;5.90;99.90;;;;;;5012627;28;20046;-66
2022/04/12 00:03:23;;;;;;;2.25;1.42;;;6.00;99.90;;;;;;5008356;28;20034;-66
2022/04/12 00:05:51;;;;;;;10.10;1.88;;;6.00;99.90;;;;;;4993292;28;20054;-66
2022/04/12 00:08:17;;;;;;;3.88;1.92;;;6.00;99.90;;;;;;5010404;28;20049;-66
2022/04/12 00:10:43;;;;;;;6.00;1.67;;;5.90;99.90;;;;;;5009178;28;20049;-66
2022/04/12 00:13:09;;;;;;;4.15;1.85;;;5.90;99.90;;;;;;5028025;28;20411;-66
2022/04/12 00:15:35;;;;;;;6.40;2.10;;;5.90;99.90;;;;;;5010203;28;20076;-66
2022/04/12 00:20:45;;;;;;;6.57;1.90;;;5.90;99.90;;;;;;5027493;28;20392;-66
2022/04/12 00:23:14;;;;;;;6.55;1.85;;;5.90;99.90;;;;;;5030090;28;20033;-66
2022/04/12 00:25:45;;;;;;;5.20;2.20;;;5.90;99.90;;;;;;5027669;28;20056;-65
2022/04/12 00:28:12;;;;;;;5.72;1.85;;;5.90;99.90;;;;;;5027222;28;20393;-66
2022/04/12 00:30:39;;;;;;;2.65;2.00;;;5.90;99.90;;;;;;5004212;28;20095;-66
2022/04/12 00:33:05;;;;;;;6.88;1.65;;;5.80;99.90;;;;;;5008665;28;20041;-66
2022/04/12 00:35:30;;;;;;;3.58;1.80;;;5.90;99.90;;;;;;5008167;28;20296;-66
2022/04/12 00:37:57;;;;;;;7.20;1.70;;;5.90;99.90;;;;;;5008952;28;20037;-66
2022/04/12 00:40:24;;;;;;;4.13;2.13;;;5.90;99.90;;;;;;5010847;28;20054;-66
2022/04/12 00:42:51;;;;;;;3.55;2.25;;;5.90;99.90;;;;;;5020521;28;20092;-66
2022/04/12 00:45:18;;;;;;;5.70;2.30;;;5.90;99.90;;;;;;5041505;28;20037;-66
2022/04/12 00:47:44;;;;;;;9.63;2.53;;;5.90;99.90;;;;;;5041285;28;20049;-66
2022/04/12 00:50:12;;;;;;;3.78;2.05;;;5.90;99.90;;;;;;5007912;28;20717;-66
2022/04/12 00:52:51;;;;;;;4.35;1.67;;;5.90;99.90;;;;;;5034745;28;20050;-66
2022/04/12 00:59:02;;;;;;;4.28;2.28;;;5.90;99.90;;;;;;5003598;23;20133;-66
2022/04/12 01:01:29;;;;;;;4.18;1.80;;;6.00;99.90;;;;;;5003639;28;20076;-66
2022/04/12 01:03:55;;;;;;;8.75;2.25;;;5.90;99.90;;;;;;4972262;28;20050;-66
2022/04/12 01:06:21;;;;;;;3.60;2.17;;;5.90;99.90;;;;;;4990555;28;20050;-66
2022/04/12 01:08:48;;;;;;;3.58;2.03;;;5.90;99.90;;;;;;4990655;28;20050;-66
2022/04/12 01:11:13;;;;;;;4.18;1.80;;;6.00;99.90;;;;;;4972544;28;20061;-66
2022/04/12 01:13:39;;;;;;;2.60;2.05;;;6.00;99.90;;;;;;4955744;28;20050;-66
2022/04/12 01:16:07;;;;;;;6.68;2.58;;;6.00;99.90;;;;;;4973436;28;20073;-66
2022/04/12 01:18:34;;;;;;;7.75;2.38;;;5.90;99.90;;;;;;4990092;28;20049;-66
2022/04/12 01:21:00;;;;;;;8.20;2.70;;;5.90;99.90;;;;;;4973038;28;20594;-66
2022/04/12 01:23:31;;;;;;;3.17;2.30;;;6.00;99.90;;;;;;5001060;28;20050;-66
2022/04/12 01:25:57;;;;;;;8.48;2.08;;;6.00;99.90;;;;;;4992228;28;20157;-66
2022/04/12 01:28:23;;;;;;;6.28;2.65;;;5.90;99.90;;;;;;4992183;28;20061;-66
2022/04/12 01:30:51;;;;;;;6.30;2.55;;;5.90;99.90;;;;;;5008290;28;20073;-66
2022/04/12 01:33:17;;;;;;;10.10;2.63;;;5.90;99.90;;;;;;5009609;28;20118;-66
2022/04/12 01:35:42;;;;;;;5.05;2.53;;;5.90;99.90;;;;;;4990994;28;20536;-66
2022/04/12 01:38:08;;;;;;;5.72;2.40;;;5.80;99.90;;;;;;5010507;28;20080;-66
2022/04/12 01:40:34;;;;;;;9.35;2.28;;;5.80;99.90;;;;;;5009008;28;20455;-65
2022/04/12 01:43:00;;;;;;;6.10;2.40;;;5.80;99.90;;;;;;5009376;28;20161;-66
2022/04/12 01:45:25;;;;;;;10.73;2.50;;;5.80;99.90;;;;;;4991354;28;20046;-66
2022/04/12 01:47:51;;;;;;;6.32;2.67;;;5.70;99.90;;;;;;5009180;28;20116;-66
2022/04/12 01:50:18;;;;;;;7.72;2.45;;;5.70;99.90;;;;;;4991898;28;20056;-66
2022/04/12 01:52:44;;;;;;;6.68;2.88;;;5.70;99.90;;;;;;5007842;28;20057;-65
2022/04/12 01:55:10;;;;;;;4.82;2.45;;;5.70;99.90;;;;;;4995027;28;20050;-66
2022/04/12 01:57:36;;;;;;;4.63;2.50;;;5.70;99.90;;;;;;4973047;28;20081;-65
2022/04/12 02:00:03;;;;;;;2.38;2.15;;;5.70;99.90;;;;;;4991573;28;20492;-66
2022/04/12 02:02:29;;;;;;;5.45;2.97;;;5.60;99.90;;;;;;5006816;28;20050;-66
2022/04/12 02:04:54;;;;;;;3.90;2.30;;;5.60;99.90;;;;;;4991150;28;20064;-66
2022/04/12 02:07:21;;;;;;;5.75;2.58;;;5.60;99.90;;;;;;5008658;28;20085;-66
2022/04/12 02:09:47;;;;;;;5.03;3.10;;;5.50;99.90;;;;;;4974101;28;20125;-66
2022/04/12 02:12:12;;;;;;;5.50;2.88;;;5.60;99.90;;;;;;4993424;28;20596;-66
2022/04/12 02:14:38;;;;;;;5.18;3.03;;;5.60;99.90;;;;;;5008285;28;20128;-66
2022/04/12 02:17:04;;;;;;;9.32;2.78;;;5.60;99.90;;;;;;4982304;28;20440;-66
2022/04/12 02:19:30;;;;;;;3.35;2.58;;;5.60;99.90;;;;;;4987405;28;20053;-66
2022/04/12 02:21:56;;;;;;;3.72;2.35;;;5.60;99.90;;;;;;4987593;28;20046;-66
2022/04/12 02:24:22;;;;;;;4.13;2.70;;;5.60;99.90;;;;;;4987677;28;20050;-66
2022/04/12 02:26:48;;;;;;;6.55;2.95;;;5.70;99.90;;;;;;4989427;28;20117;-66
2022/04/12 02:29:13;;;;;;;5.53;2.70;;;5.70;99.90;;;;;;4971890;28;20627;-66
2022/04/12 02:31:41;;;;;;;5.35;2.70;;;5.70;99.90;;;;;;4994527;28;20042;-66
2022/04/12 02:34:08;;;;;;;6.63;2.83;;;5.70;99.90;;;;;;5008814;28;20364;-66
2022/04/12 02:36:33;;;;;;;4.93;3.10;;;5.70;99.90;;;;;;4990497;28;20054;-66
2022/04/12 02:38:59;;;;;;;5.65;3.15;;;5.70;99.90;;;;;;5024239;28;20388;-66
2022/04/12 02:41:25;;;;;;;5.97;3.17;;;5.60;99.90;;;;;;5006680;28;20049;-66
2022/04/12 02:43:50;;;;;;;9.27;3.72;;;5.70;99.90;;;;;;5008646;28;20584;-66
2022/04/12 02:46:16;;;;;;;2.65;1.88;;;5.60;99.90;;;;;;4990502;28;20050;-66
2022/04/12 02:48:42;;;;;;;5.07;3.08;;;5.60;99.90;;;;;;5008229;28;20597;-66
2022/04/12 02:51:07;;;;;;;7.43;3.08;;;5.60;99.90;;;;;;5008006;28;20057;-66
2022/04/12 02:53:33;;;;;;;8.43;3.40;;;5.60;99.90;;;;;;5008081;28;20120;-66
2022/04/12 02:55:59;;;;;;;5.72;3.20;;;5.50;99.90;;;;;;5008243;28;20164;-66
2022/04/12 02:58:25;;;;;;;6.28;3.25;;;5.50;99.90;;;;;;5007341;28;20468;-66
2022/04/12 03:00:50;;;;;;;5.18;3.75;;;5.50;99.90;;;;;;4989609;28;20066;-66
2022/04/12 03:03:16;;;;;;;12.63;4.15;;;5.50;99.90;;;;;;5007886;28;20045;-66
2022/04/12 03:05:42;;;;;;;7.68;3.85;;;5.40;99.90;;;;;;5008427;28;20115;-66
2022/04/12 03:08:08;;;;;;;10.52;3.53;;;5.40;99.90;;;;;;4990509;28;20185;-66
2022/04/12 03:10:34;;;;;;;6.57;3.53;;;5.40;99.90;;;;;;5006432;28;20045;-66
2022/04/12 03:13:00;;;;;;;7.15;3.55;;;5.40;99.90;;;;;;5007418;28;20116;-66
2022/04/12 03:15:25;;;;;;;9.82;3.80;;;5.50;99.90;;;;;;4989812;28;20056;-66
2022/04/12 03:17:51;;;;;;;8.23;3.38;;;5.50;99.90;;;;;;5008373;28;20488;-66
2022/04/12 03:20:17;;;;;;;5.72;3.30;;;5.50;99.90;;;;;;5005807;28;20034;-66
2022/04/12 03:22:43;;;;;;;5.82;3.60;;;5.50;99.90;;;;;;4990771;28;20058;-66
2022/04/12 03:25:12;;;;;;;6.07;4.05;;;5.50;99.90;;;;;;5007772;28;20124;-66
2022/04/12 03:27:38;;;;;;;6.97;3.92;;;5.50;99.90;;;;;;5008193;28;20050;-66
2022/04/12 03:30:05;;;;;;;5.85;4.20;;;5.50;99.90;;;;;;4990006;28;20046;-66
2022/04/12 03:32:31;;;;;;;5.40;3.70;;;5.50;99.90;;;;;;5006881;28;20042;-66
2022/04/12 03:34:57;;;;;;;5.75;3.67;;;5.50;99.90;;;;;;4976883;28;20451;-66
2022/04/12 03:37:22;;;;;;;12.40;4.15;;;5.40;99.90;;;;;;4993761;28;20085;-66
2022/04/12 03:39:50;;;;;;;8.98;4.28;;;5.50;99.90;;;;;;5012165;28;20061;-66
2022/04/12 03:42:18;;;;;;;6.82;3.90;;;5.50;99.90;;;;;;4993427;28;20445;-66
2022/04/12 03:44:45;;;;;;;9.98;3.15;;;5.50;99.90;;;;;;5012130;28;20060;-66
2022/04/12 03:47:11;;;;;;;7.93;4.60;;;5.50;99.90;;;;;;4993764;28;20245;-66
2022/04/12 03:49:38;;;;;;;10.45;4.28;;;5.60;99.90;;;;;;5011250;28;20084;-65
2022/04/12 03:52:04;;;;;;;6.57;4.43;;;5.60;99.90;;;;;;4994013;28;20045;-66
2022/04/12 03:54:30;;;;;;;8.27;4.72;;;5.60;99.90;;;;;;5010956;28;20061;-65
2022/04/12 03:56:56;;;;;;;10.68;4.85;;;5.60;99.90;;;;;;4993884;28;20045;-65
2022/04/12 03:59:22;;;;;;;8.70;4.22;;;5.60;99.90;;;;;;4992754;28;20056;-66
2022/04/12 04:01:49;;;;;;;7.55;3.65;;;5.70;99.90;;;;;;4994060;28;20058;-66
2022/04/12 04:04:15;;;;;;;8.02;4.80;;;5.70;99.90;;;;;;5011260;28;20050;-66
2022/04/12 04:06:41;;;;;;;6.28;4.85;;;5.70;99.90;;;;;;5011206;28;20188;-66
2022/04/12 04:09:07;;;;;;;11.32;4.40;;;5.70;99.90;;;;;;4994200;28;20532;-66
2022/04/12 04:11:33;;;;;;;6.05;4.28;;;5.60;99.90;;;;;;4992636;28;20049;-66
2022/04/12 04:14:03;;;;;;;6.82;4.63;;;5.60;99.90;;;;;;4993683;28;20080;-66
2022/04/12 04:16:29;;;;;;;6.60;4.75;;;5.60;99.90;;;;;;5010697;28;20129;-66
2022/04/12 04:18:54;;;;;;;5.80;4.60;;;5.60;99.90;;;;;;5011708;28;20038;-66
2022/04/12 04:21:20;;;;;;;5.57;4.88;;;5.60;99.90;;;;;;5010311;28;20077;-66
2022/04/12 04:23:46;;;;;;;5.85;4.32;;;5.60;99.90;;;;;;5010016;28;20046;-66
2022/04/12 04:26:12;;;;;;;8.70;5.00;;;5.60;99.90;;;;;;4993524;28;20108;-66
2022/04/12 04:28:41;;;;;;;9.98;4.90;;;5.60;99.90;;;;;;4992461;28;20088;-66
2022/04/12 04:31:07;;;;;;;8.45;4.85;;;5.60;99.90;;;;;;4992598;28;20492;-66
2022/04/12 04:33:33;;;;;;;6.43;4.97;;;5.60;99.90;;;;;;4992555;28;20041;-66
2022/04/12 04:35:59;;;;;;;13.27;5.25;;;5.60;99.90;;;;;;5011123;28;20077;-65
2022/04/12 04:38:25;;;;;;;9.88;4.97;;;5.60;99.90;;;;;;4976563;28;20050;-66
2022/04/12 04:40:50;;;;;;;9.20;4.65;;;5.60;99.90;;;;;;4993468;28;20058;-66
2022/04/12 04:43:16;;;;;;;7.88;5.10;;;5.60;99.90;;;;;;5009932;28;20046;-66
2022/04/12 04:45:43;;;;;;;7.80;4.72;;;5.70;99.90;;;;;;4992505;28;20046;-66
2022/04/12 04:48:10;;;;;;;7.47;5.45;;;5.70;99.90;;;;;;5010632;28;20038;-66
2022/04/12 04:50:36;;;;;;;10.40;5.43;;;5.70;99.90;;;;;;4992454;28;20128;-65
2022/04/12 04:53:04;;;;;;;10.43;5.45;;;5.70;99.90;;;;;;5010062;28;20081;-66
2022/04/12 04:55:31;;;;;;;8.30;4.57;;;5.70;99.90;;;;;;5009806;28;20050;-66
2022/04/12 04:57:59;;;;;;;7.90;5.60;;;5.60;99.90;;;;;;5010832;28;20535;-66
2022/04/12 05:00:29;;;;;;;6.00;4.50;;;5.60;99.90;;;;;;5005702;28;20061;-65
2022/04/12 05:02:56;;;;;;;13.00;6.18;;;5.60;99.90;;;;;;5005925;28;20060;-66
2022/04/12 05:05:23;;;;;;;8.50;5.53;;;5.60;99.90;;;;;;5008863;28;20042;-66
2022/04/12 05:07:52;;;;;;;6.68;4.88;;;5.50;99.90;;;;;;5008571;28;20480;-66
2022/04/12 05:10:30;;;;;;;8.48;5.03;;;5.50;99.90;;;;;;5008486;28;20073;-66
2022/04/12 05:12:56;;;;;;;8.35;5.22;;;5.60;99.90;;;;;;5007776;28;20185;-65
2022/04/12 05:15:22;;;;;;;7.07;4.38;;;5.70;99.90;;;;;;5007657;28;20455;-65
2022/04/12 05:17:52;;;;;;;9.73;5.28;;;5.60;99.90;;;;;;5007883;28;20128;-66
2022/04/12 05:20:20;;;;;;;10.90;5.32;;;5.70;99.90;;;;;;5006505;28;20103;-66
2022/04/12 05:22:46;;;;;;;11.07;5.95;;;5.70;99.90;;;;;;5008996;28;20117;-66
2022/04/12 05:25:12;;;;;;;8.70;5.07;;;5.70;99.90;;;;;;5006459;28;20503;-66
2022/04/12 05:27:38;;;;;;;7.38;5.30;;;5.70;99.90;;;;;;4990299;28;20054;-66
2022/04/12 05:30:10;;;;;;;6.25;5.28;;;5.80;99.90;;;;;;5007052;28;20061;-65
2022/04/12 05:32:36;;;;;;;12.50;6.00;;;5.80;99.90;;;;;;5007858;28;20042;-66
2022/04/12 05:35:03;;;;;;;7.05;5.07;;;5.70;99.90;;;;;;5008022;28;20042;-66
2022/04/12 05:37:31;;;;;;;11.68;5.97;;;5.70;99.90;;;;;;5008057;28;20542;-65
2022/04/12 05:39:57;;;;;;;11.05;5.80;;;5.70;99.90;;;;;;5008883;28;20467;-66
2022/04/12 05:42:26;;;;;;;13.20;6.28;;;5.70;99.90;;;;;;5007699;28;20041;-66
2022/04/12 05:44:51;;;;;;;19.65;6.50;;;5.80;99.90;;;;;;5007856;28;20042;-66
2022/04/12 05:47:17;;;;;;;6.35;5.22;;;5.80;99.90;;;;;;5007727;28;20054;-66
2022/04/12 05:49:43;;;;;;;8.98;5.88;;;5.80;99.90;;;;;;4990297;28;20085;-66
2022/04/12 05:52:09;;;;;;;12.57;5.82;;;5.80;99.90;;;;;;5008291;28;20128;-66
2022/04/12 05:54:35;;;;;;;9.85;5.13;;;5.90;99.90;;;;;;5006320;28;20137;-66
2022/04/12 05:57:00;;;;;;;13.45;5.57;;;5.90;99.90;;;;;;4990068;28;20463;-66
2022/04/12 05:59:26;;;;;;;7.82;5.68;;;6.00;99.90;;;;;;5006987;28;20709;-66
2022/04/12 06:01:52;;;;;;;18.67;5.82;;;6.20;99.90;;;;;;5006382;28;20061;-66
2022/04/12 06:04:17;;;;;;;11.77;5.57;;;6.40;99.90;;;;;;4989578;28;20128;-66
2022/04/12 06:06:43;;;;;;;8.93;5.68;;;6.60;99.90;;;;;;4989494;28;20132;-66
2022/04/12 06:09:09;;;;;;;11.77;6.47;;;6.80;99.90;;;;;;5007196;28;20038;-66
2022/04/12 06:11:35;;;;;;;10.52;5.68;;;7.00;99.90;;;;;;5006349;28;20053;-66
2022/04/12 06:14:00;;;;;;;7.30;5.72;;;7.20;99.90;;;;;;4990194;28;20064;-66
2022/04/12 06:16:27;;;;;;;11.05;6.40;;;7.50;99.90;;;;;;5006621;28;20843;-65
2022/04/12 06:18:53;;;;;;;4.90;3.53;;;7.90;99.90;;;;;;4989867;28;20049;-67
2022/04/12 06:21:19;;;;;;;8.27;5.75;;;8.00;99.90;;;;;;5007373;28;20057;-66
2022/04/12 06:23:45;;;;;;;9.18;5.03;;;8.10;99.90;;;;;;5007702;28;20045;-66
2022/04/12 06:26:11;;;;;;;14.35;5.00;;;8.00;99.90;;;;;;5007227;28;20054;-66
2022/04/12 06:28:37;;;;;;;9.63;5.70;;;8.00;99.90;;;;;;5006885;28;20056;-65
2022/04/12 06:31:03;;;;;;;7.95;3.97;;;8.10;99.90;;;;;;4989387;28;20133;-66
2022/04/12 06:33:29;;;;;;;8.88;5.10;;;8.10;99.90;;;;;;5003955;28;20082;-66
2022/04/12 06:35:56;;;;;;;13.65;5.32;;;8.10;99.90;;;;;;4988204;28;20500;-66
2022/04/12 06:38:22;;;;;;;9.07;5.05;;;7.90;99.90;;;;;;4996157;28;20049;-66
2022/04/12 06:40:49;;;;;;;11.43;4.93;;;7.80;99.90;;;;;;5022405;28;20165;-66
2022/04/12 06:43:15;;;;;;;10.70;5.82;;;7.60;99.90;;;;;;5021848;28;20058;-66
2022/04/12 06:45:42;;;;;;;9.02;4.60;;;7.60;99.90;;;;;;5006764;28;20034;-66
2022/04/12 06:48:07;;;;;;;8.60;5.65;;;7.60;99.90;;;;;;5006710;28;20389;-66
2022/04/12 06:50:34;;;;;;;6.13;4.45;;;7.70;99.90;;;;;;4979500;28;20049;-66
2022/04/12 06:53:03;;;;;;;9.85;4.13;;;7.80;99.90;;;;;;4970446;28;20058;-66
2022/04/12 06:55:29;;;;;;;8.48;5.53;;;7.90;99.90;;;;;;4985490;28;20042;-66
2022/04/12 06:57:56;;;;;;;7.65;5.38;;;8.00;99.90;;;;;;4969998;28;20743;-66
2022/04/12 07:00:22;;;;;;;8.18;4.65;;;8.10;99.90;;;;;;4963335;28;20116;-66
2022/04/12 07:02:48;;;;;;;6.93;3.63;;;8.20;99.90;;;;;;4963631;28;20050;-66
2022/04/12 07:05:15;;;;;;;6.72;4.15;;;8.30;99.90;;;;;;4965637;28;20512;-66
2022/04/12 07:07:42;;;;;;;4.90;4.40;;;8.30;98.90;;;;;;4961458;28;20053;-66
2022/04/12 07:10:10;;;;;;;9.43;4.32;;;8.40;99.90;;;;;;4959464;28;20104;-66
2022/04/12 07:12:37;;;;;;;6.53;3.50;;;8.50;98.90;;;;;;4957838;28;20058;-66
2022/04/12 07:15:03;;;;;;;6.82;3.88;;;8.60;98.30;;;;;;4956177;28;20051;-66
2022/04/12 07:17:29;;;;;;;5.63;3.30;;;8.60;98.40;;;;;;4957480;28;20120;-66
2022/04/12 07:19:55;;;;;;;8.48;4.63;;;8.60;98.30;;;;;;4957079;28;20038;-66
2022/04/12 07:22:22;;;;;;;3.90;2.58;;;8.60;97.90;;;;;;4960229;28;20055;-66
2022/04/12 07:24:48;;;;;;;21.92;6.22;;;8.60;97.40;;;;;;4957161;28;20114;-66
2022/04/12 07:27:14;;;;;;;6.35;4.95;;;8.60;98.20;;;;;;4962545;28;20540;-66
2022/04/12 07:29:39;;;;;;;12.20;4.95;;;8.60;98.30;;;;;;4959778;28;20055;-66
2022/04/12 07:32:06;;;;;;;10.38;4.38;;;8.60;99.10;;;;;;4961267;28;20043;-66
2022/04/12 07:34:31;;;;;;;15.10;5.78;;;8.70;98.50;;;;;;4958233;28;20047;-66
2022/04/12 07:36:57;;;;;;;10.82;4.72;;;8.70;99.10;;;;;;4951967;28;20046;-66
2022/04/12 07:39:24;;;;;;;6.72;4.32;;;8.70;99.40;;;;;;4947777;28;20564;-66
2022/04/12 07:41:51;;;;;;;11.60;5.53;;;8.80;98.90;;;;;;4948118;28;20051;-66
2022/04/12 07:44:19;;;;;;;15.23;5.13;;;8.80;98.30;;;;;;4952550;28;20049;-66
2022/04/12 07:46:45;;;;;;;8.38;4.95;;;8.90;98.40;;;;;;4958917;28;20141;-66
2022/04/12 07:49:11;;;;;;;6.82;5.55;;;9.00;99.50;;;;;;4966153;28;20047;-66
2022/04/12 07:51:38;;;;;;;6.63;5.15;;;9.20;99.10;;;;;;4964166;28;20051;-66
2022/04/12 07:54:04;;;;;;;7.90;4.85;;;9.30;97.70;;;;;;4959522;28;20083;-66
2022/04/12 07:56:34;;;;;;;11.50;5.53;;;9.60;97.50;;;;;;4957663;28;20471;-66
2022/04/12 07:59:00;;;;;;;5.55;4.68;;;9.90;96.70;;;;;;4971760;28;20529;-66
2022/04/12 08:01:26;;;;;;;5.82;4.50;;;10.10;96.20;;;;;;5001024;28;20056;-66
2022/04/12 08:03:53;;;;;;;6.72;3.17;;;10.10;94.20;;;;;;5005562;28;20042;-66
2022/04/12 08:06:18;;;;;;;11.18;4.50;;;10.10;92.80;;;;;;4977210;28;20108;-66
2022/04/12 08:08:44;;;;;;;7.68;5.38;;;10.20;91.50;;;;;;4986555;28;20453;-66
2022/04/12 08:11:10;;;;;;;7.93;5.07;;;10.30;93.60;;;;;;5003961;28;20046;-66
2022/04/12 08:13:36;;;;;;;6.35;5.20;;;10.40;93.80;;;;;;5001263;28;20385;-66
2022/04/12 08:16:05;;;;;;;8.85;5.10;;;10.50;93.20;;;;;;5002641;28;20045;-66
2022/04/12 08:18:32;;;;;;;12.57;6.30;;;10.70;91.60;;;;;;5005294;28;20072;-66
2022/04/12 08:20:58;;;;;;;5.13;3.78;;;10.70;92.50;;;;;;5007903;28;20057;-67
2022/04/12 08:23:24;;;;;;;10.05;5.30;;;10.80;90.40;;;;;;5004719;28;20060;-66
2022/04/12 08:25:51;;;;;;;9.88;5.50;;;10.80;91.30;;;;;;5003519;28;20602;-66
2022/04/12 08:28:17;;;;;;;12.02;5.35;;;10.90;92.70;;;;;;4988266;28;20052;-67
2022/04/12 08:30:43;;;;;;;6.72;5.70;;;11.00;91.40;;;;;;4991238;28;20050;-66
2022/04/12 08:33:09;;;;;;;7.75;5.38;;;11.10;93.60;;;;;;5005737;28;20046;-66
2022/04/12 08:35:35;;;;;;;8.73;5.88;;;11.30;92.70;;;;;;5000587;28;20137;-66
2022/04/12 08:38:02;;;;;;;8.27;5.85;;;11.40;93.30;;;;;;5003961;28;20548;-66
2022/04/12 08:40:29;;;;;;;11.02;4.88;;;11.50;90.80;;;;;;4987344;28;20042;-67
2022/04/12 08:42:57;;;;;;;8.15;5.57;;;11.50;92.30;;;;;;4978173;28;20056;-66
2022/04/12 08:45:23;;;;;;;5.72;4.40;;;11.70;91.00;;;;;;4985977;28;20152;-67
2022/04/12 08:47:52;;;;;;;13.65;5.60;;;11.70;82.40;;;;;;5000924;28;20125;-66
2022/04/12 08:50:19;;;;;;;9.13;4.72;;;11.80;93.50;;;;;;5005830;28;20088;-66
2022/04/12 08:52:46;;;;;;;8.27;5.25;;;12.00;92.10;;;;;;4984124;28;20073;-66
2022/04/12 08:55:12;;;;;;;8.38;4.82;;;12.20;85.40;;;;;;4983337;28;20049;-69
2022/04/12 08:57:39;;;;;;;7.43;5.40;;;12.20;85.80;;;;;;4984353;28;20050;-67
2022/04/12 09:00:07;;;;;;;8.38;6.00;;;12.30;81.50;;;;;;4968378;28;20077;-66
2022/04/12 09:02:33;;;;;;;7.93;5.82;;;12.50;90.90;;;;;;4997754;28;20501;-67
2022/04/12 09:04:59;;;;;;;10.20;5.88;;;12.50;78.20;;;;;;4983049;28;20132;-67
2022/04/12 09:07:26;;;;;;;3.40;2.80;;;12.60;83.60;;;;;;4985136;28;20061;-67
2022/04/12 09:10:01;;;;;;;13.50;5.75;;;12.50;74.90;;;;;;4979315;28;20054;-67
2022/04/12 09:12:33;;;;;;;9.90;5.35;;;12.50;91.90;;;;;;4984164;28;20046;-68
2022/04/12 09:14:58;;;;;;;8.63;5.60;;;12.70;86.60;;;;;;5003417;28;20128;-67
2022/04/12 09:17:30;;;;;;;3.65;3.28;;;12.80;76.80;;;;;;4994632;28;20531;-67
2022/04/12 09:19:55;;;;;;;6.55;5.55;;;12.60;78.00;;;;;;4998175;28;20109;-66
2022/04/12 09:22:26;;;;;;;8.45;5.25;;;12.70;82.30;;;;;;4989935;28;20520;-67
2022/04/12 09:24:58;;;;;;;9.18;5.32;;;13.00;80.40;;;;;;4986565;28;20742;-67
2022/04/12 09:27:26;;;;;;;9.77;5.68;;;13.10;79.60;;;;;;4986062;28;20148;-67
2022/04/12 09:30:01;;;;;;;12.07;7.15;;;13.10;77.80;;;;;;5001697;28;20041;-67
2022/04/12 09:32:29;;;;;;;8.82;5.57;;;13.20;83.40;;;;;;4988262;28;20049;-66
2022/04/12 09:34:56;;;;;;;8.55;5.85;;;13.30;79.30;;;;;;4987412;28;20042;-67
2022/04/12 09:37:27;;;;;;;8.27;5.30;;;13.40;77.40;;;;;;4995436;28;20046;-67
2022/04/12 09:39:58;;;;;;;7.82;5.47;;;13.20;69.60;;;;;;5005954;28;20061;-66
2022/04/12 09:42:51;;;;;;;9.25;4.75;;;13.20;73.60;;;;;;5008196;28;20042;-67
2022/04/12 09:45:28;;;;;;;10.18;5.72;;;13.20;77.30;;;;;;5007452;28;20096;-67
2022/04/12 09:47:59;;;;;;;13.80;5.55;;;13.20;73.20;;;;;;4991543;28;20133;-67
2022/04/12 09:50:26;;;;;;;9.02;6.20;;;13.30;86.90;;;;;;5006574;28;20484;-67
2022/04/12 09:52:56;;;;;;;5.32;3.65;;;13.50;79.00;;;;;;5004653;28;20125;-67
2022/04/12 09:55:38;;;;;;;7.28;5.65;;;13.70;74.70;;;;;;4997862;28;20052;-67
2022/04/12 09:58:06;;;;;;;10.65;5.57;;;13.90;88.80;;;;;;4987789;28;20093;-67
2022/04/12 10:00:33;;;;;;;7.07;5.50;;;14.10;71.70;;;;;;4988828;28;20600;-66
2022/04/12 10:03:04;;;;;;;7.07;5.50;;;14.10;75.00;;;;;;5006673;28;20821;-67
2022/04/12 10:05:31;;;;;;;10.63;5.18;;;14.20;79.40;;;;;;4988338;28;20034;-67
2022/04/12 10:08:00;;;;;;;9.05;5.53;;;14.40;71.60;;;;;;5007956;28;20034;-67
2022/04/12 10:10:31;;;;;;;6.18;4.22;;;14.40;71.90;;;;;;4989562;28;20050;-67
2022/04/12 10:12:58;;;;;;;6.97;5.63;;;14.30;70.50;;;;;;4989741;28;20053;-67
2022/04/12 10:15:25;;;;;;;9.52;5.57;;;14.40;73.60;;;;;;5000983;28;20503;-67
2022/04/12 10:17:51;;;;;;;5.70;4.18;;;14.60;73.90;;;;;;5006780;28;20443;-67
2022/04/12 10:20:18;;;;;;;9.85;4.43;;;14.70;69.10;;;;;;4989329;28;20104;-67
2022/04/12 10:22:45;;;;;;;8.00;5.57;;;14.70;67.30;;;;;;5006423;28;20511;-67
2022/04/12 10:25:16;;;;;;;8.15;5.10;;;14.70;68.70;;;;;;4989791;28;20100;-67
2022/04/12 10:27:42;;;;;;;13.07;6.07;;;14.90;72.80;;;;;;5006561;28;20108;-67
2022/04/12 10:30:18;;;;;;;13.00;6.50;;;14.90;67.50;;;;;;5007284;28;20089;-67
2022/04/12 10:33:16;;;;;;;8.77;6.20;;;15.00;77.40;;;;;;4987792;28;20388;-67
2022/04/12 10:35:45;;;;;;;10.32;5.90;;;15.20;72.80;;;;;;4983725;28;20049;-67
2022/04/12 10:38:19;;;;;;;6.85;5.30;;;15.30;74.50;;;;;;4989688;28;20093;-67
2022/04/12 10:40:51;;;;;;;9.77;5.82;;;15.30;63.20;;;;;;5001939;28;20377;-67
2022/04/12 10:43:33;;;;;;;8.30;5.93;;;15.20;57.90;;;;;;4989067;28;20042;-67
2022/04/12 10:46:06;;;;;;;10.98;6.53;;;15.30;61.40;;;;;;5005079;28;20083;-67
2022/04/12 10:48:33;;;;;;;12.15;5.63;;;15.50;53.90;;;;;;4988754;28;20061;-67
2022/04/12 10:51:00;;;;;;;7.00;3.95;;;15.50;42.10;;;;;;4989450;28;20058;-67
2022/04/12 10:53:38;;;;;;;11.88;6.10;;;15.40;43.50;;;;;;5006717;28;20341;-67
2022/04/12 10:56:17;;;;;;;10.65;5.95;;;15.70;65.90;;;;;;5002375;28;20058;-68
2022/04/12 10:58:44;;;;;;;11.13;6.43;;;15.80;43.40;;;;;;4992142;28;20109;-68
2022/04/12 11:01:26;;;;;;;11.23;6.72;;;15.80;41.80;;;;;;5006330;28;20796;-67
2022/04/12 11:03:53;;;;;;;7.82;5.40;;;15.90;51.80;;;;;;5012406;28;20104;-67
2022/04/12 11:06:22;;;;;;;6.30;5.03;;;16.10;48.90;;;;;;5003441;28;20377;-67
2022/04/12 11:08:53;;;;;;;12.20;6.93;;;16.00;55.10;;;;;;4988704;28;20401;-67
2022/04/12 11:11:27;;;;;;;6.82;4.93;;;16.10;63.10;;;;;;5006157;28;20129;-67
2022/04/12 11:13:55;;;;;;;10.02;6.47;;;16.20;54.60;;;;;;4991025;28;20080;-67
2022/04/12 11:16:26;;;;;;;7.72;5.80;;;16.00;45.10;;;;;;5006163;28;20097;-68
2022/04/12 11:18:57;;;;;;;10.13;7.10;;;16.10;52.60;;;;;;4988187;28;20448;-67
2022/04/12 11:21:46;;;;;;;12.73;7.32;;;16.30;60.80;;;;;;5006202;28;20046;-67
2022/04/12 11:24:15;;;;;;;11.83;6.80;;;16.50;63.50;;;;;;5005988;28;20137;-67
2022/04/12 11:26:46;;;;;;;8.13;7.00;;;16.70;48.50;;;;;;4996566;28;20668;-67
2022/04/12 11:29:22;;;;;;;12.40;7.30;;;16.70;43.50;;;;;;4984372;28;20046;-68
2022/04/12 11:31:53;;;;;;;8.93;7.25;;;16.80;47.10;;;;;;4968358;28;20512;-67
2022/04/12 11:34:21;;;;;;;8.55;6.55;;;16.80;47.60;;;;;;4987824;28;20496;-67
2022/04/12 11:36:52;;;;;;;12.13;5.20;;;16.60;40.90;;;;;;4979176;28;20045;-68
2022/04/12 11:39:19;;;;;;;8.73;6.70;;;16.70;49.60;;;;;;4981393;28;20050;-67
2022/04/12 11:41:45;;;;;;;10.95;6.05;;;16.60;45.00;;;;;;4974633;28;20077;-67
2022/04/12 11:44:11;;;;;;;10.50;6.78;;;16.60;39.00;;;;;;5005735;28;20050;-67
2022/04/12 11:46:37;;;;;;;8.80;6.00;;;16.80;41.70;;;;;;5003507;28;20057;-67
2022/04/12 11:49:12;;;;;;;11.05;7.10;;;16.70;43.40;;;;;;4977833;28;20084;-68
2022/04/12 11:51:43;;;;;;;9.27;7.88;;;16.90;38.80;;;;;;5004415;28;20042;-67
2022/04/12 11:54:30;;;;;;;10.73;6.47;;;17.00;42.60;;;;;;4999210;28;20555;-68
2022/04/12 11:57:10;;;;;;;13.05;7.88;;;17.00;44.80;;;;;;5009383;28;20050;-67
2022/04/12 11:59:47;;;;;;;12.60;6.00;;;17.10;42.10;;;;;;5008827;28;20423;-67
2022/04/12 12:02:14;;;;;;;13.13;7.50;;;16.90;40.90;;;;;;5005362;28;20037;-67
2022/04/12 12:04:47;;;;;;;12.52;6.60;;;17.00;47.20;;;;;;4991900;28;20049;-67
2022/04/12 12:07:14;;;;;;;11.40;7.28;;;17.10;46.80;;;;;;5010031;28;20492;-67
2022/04/12 12:09:50;;;;;;;10.75;7.18;;;17.10;52.10;;;;;;5007856;28;20564;-67
2022/04/12 12:12:16;;;;;;;10.70;7.10;;;17.20;39.30;;;;;;4991458;28;20408;-68
2022/04/12 12:14:42;;;;;;;16.23;8.23;;;17.30;43.90;;;;;;4984271;28;20525;-67
2022/04/12 12:17:18;;;;;;;9.45;6.97;;;17.40;44.10;;;;;;4990961;28;20038;-66
2022/04/12 12:19:45;;;;;;;12.63;6.00;;;17.50;38.80;;;;;;5005642;28;20408;-66
2022/04/12 12:22:13;;;;;;;9.52;7.38;;;17.50;44.20;;;;;;5008781;28;20058;-66
2022/04/12 12:24:56;;;;;;;8.93;6.95;;;17.40;37.40;;;;;;4988655;28;20477;-67
2022/04/12 12:27:30;;;;;;;11.60;6.47;;;17.50;41.20;;;;;;4973848;28;20150;-66
2022/04/12 12:30:19;;;;;;;8.57;5.00;;;17.40;44.40;;;;;;5005819;28;20068;-66
2022/04/12 12:32:49;;;;;;;11.85;7.53;;;17.40;34.60;;;;;;5008379;28;20060;-66
2022/04/12 12:35:15;;;;;;;;;;;17.50;49.30;;;;;;5009980;28;20054;-66
2022/04/12 12:37:43;;;;;;;11.57;6.90;;;17.60;42.90;;;;;;5008697;28;20412;-66
2022/04/12 12:40:19;;;;;;;10.73;7.40;;;17.80;51.60;;;;;;4991228;28;20078;-66
2022/04/12 12:42:46;;;;;;;9.18;7.22;;;17.80;49.70;;;;;;4991047;28;20054;-67
2022/04/12 12:45:14;;;;;;;10.30;7.32;;;17.80;44.10;;;;;;5009111;28;20046;-66
2022/04/12 12:47:41;;;;;;;20.23;6.78;;;17.70;40.60;;;;;;4991468;28;20050;-67
2022/04/12 12:50:11;;;;;;;11.43;8.15;;;17.70;40.70;;;;;;5008877;28;20081;-66
2022/04/12 12:52:38;;;;;;;10.55;7.57;;;17.80;53.30;;;;;;4989220;28;20133;-67
2022/04/12 12:55:12;;;;;;;9.98;7.95;;;17.90;44.40;;;;;;4990676;28;20057;-67
2022/04/12 12:57:49;;;;;;;9.88;7.22;;;17.90;55.60;;;;;;5009042;28;20099;-66
2022/04/12 13:00:17;;;;;;;14.35;8.25;;;17.80;50.50;;;;;;4971770;28;20047;-66